sensor_id;sensor_type;location;lat;lon;timestamp;pressure;altitude;pressure_sealevel;temperature;humidity
64551;BME280;50945;44.472;-123.352;2023-08-08T00:00:22;100481.00;;;29.76;37.01
64551;BME280;50945;44.472;-123.352;2023-08-08T00:02:49;100480.59;;;29.50;37.44
64551;BME280;50945;44.472;-123.352;2023-08-08T00:05:15;100484.41;;;29.40;37.68
64551;BME280;50945;44.472;-123.352;2023-08-08T00:07:41;100478.38;;;29.47;37.31
64551;BME280;50945;44.472;-123.352;2023-08-08T00:10:07;100483.28;;;29.41;37.55
64551;BME280;50945;44.472;-123.352;2023-08-08T00:12:34;100490.75;;;29.32;37.99
64551;BME280;50945;44.472;-123.352;2023-08-08T00:15:00;100488.94;;;29.22;37.96
64551;BME280;50945;44.472;-123.352;2023-08-08T00:17:26;100492.19;;;29.15;38.28
64551;BME280;50945;44.472;-123.352;2023-08-08T00:19:53;100488.25;;;29.11;38.22
64551;BME280;50945;44.472;-123.352;2023-08-08T00:22:19;100485.91;;;28.99;38.83
64551;BME280;50945;44.472;-123.352;2023-08-08T00:24:45;100493.34;;;28.90;38.94
64551;BME280;50945;44.472;-123.352;2023-08-08T00:27:11;100489.56;;;28.81;39.00
64551;BME280;50945;44.472;-123.352;2023-08-08T00:29:37;100487.19;;;28.69;39.22
64551;BME280;50945;44.472;-123.352;2023-08-08T00:32:03;100484.94;;;28.47;39.62
64551;BME280;50945;44.472;-123.352;2023-08-08T00:34:30;100477.63;;;28.27;39.81
64551;BME280;50945;44.472;-123.352;2023-08-08T00:36:56;100484.66;;;28.05;39.95
64551;BME280;50945;44.472;-123.352;2023-08-08T00:39:22;100481.44;;;27.88;40.60
64551;BME280;50945;44.472;-123.352;2023-08-08T00:41:48;100486.91;;;27.74;40.93
64551;BME280;50945;44.472;-123.352;2023-08-08T00:44:14;100486.81;;;27.55;41.16
64551;BME280;50945;44.472;-123.352;2023-08-08T00:46:40;100481.94;;;27.37;41.45
64551;BME280;50945;44.472;-123.352;2023-08-08T00:49:07;100485.69;;;27.22;41.88
64551;BME280;50945;44.472;-123.352;2023-08-08T00:51:34;100484.72;;;27.02;42.26
64551;BME280;50945;44.472;-123.352;2023-08-08T00:54:00;100485.41;;;26.84;42.44
64551;BME280;50945;44.472;-123.352;2023-08-08T00:56:27;100489.97;;;26.69;42.68
64551;BME280;50945;44.472;-123.352;2023-08-08T00:58:53;100489.47;;;26.62;42.94
64551;BME280;50945;44.472;-123.352;2023-08-08T01:01:19;100493.13;;;26.52;43.16
64551;BME280;50945;44.472;-123.352;2023-08-08T01:03:46;100492.06;;;26.38;43.33
64551;BME280;50945;44.472;-123.352;2023-08-08T01:06:19;100489.34;;;26.28;43.76
64551;BME280;50945;44.472;-123.352;2023-08-08T01:08:58;100487.69;;;26.11;43.78
64551;BME280;50945;44.472;-123.352;2023-08-08T01:11:28;100480.47;;;25.95;44.50
64551;BME280;50945;44.472;-123.352;2023-08-08T01:13:56;100483.28;;;25.79;44.50
64551;BME280;50945;44.472;-123.352;2023-08-08T01:16:23;100482.75;;;25.67;44.83
64551;BME280;50945;44.472;-123.352;2023-08-08T01:18:52;100483.59;;;25.57;45.02
64551;BME280;50945;44.472;-123.352;2023-08-08T01:21:19;100477.47;;;25.50;45.26
64551;BME280;50945;44.472;-123.352;2023-08-08T01:24:18;100483.88;;;25.40;46.07
64551;BME280;50945;44.472;-123.352;2023-08-08T01:26:46;100487.81;;;25.29;45.66
64551;BME280;50945;44.472;-123.352;2023-08-08T01:29:12;100490.84;;;25.22;45.71
64551;BME280;50945;44.472;-123.352;2023-08-08T01:31:37;100487.22;;;25.12;45.79
64551;BME280;50945;44.472;-123.352;2023-08-08T01:34:04;100484.41;;;25.07;46.09
64551;BME280;50945;44.472;-123.352;2023-08-08T01:36:41;100476.31;;;25.00;46.71
64551;BME280;50945;44.472;-123.352;2023-08-08T01:39:13;100483.00;;;24.94;46.51
64551;BME280;50945;44.472;-123.352;2023-08-08T01:41:39;100480.78;;;24.85;46.61
64551;BME280;50945;44.472;-123.352;2023-08-08T01:44:07;100469.88;;;24.84;46.96
64551;BME280;50945;44.472;-123.352;2023-08-08T01:46:33;100469.59;;;24.80;47.16
64551;BME280;50945;44.472;-123.352;2023-08-08T01:49:00;100467.91;;;24.79;47.25
64551;BME280;50945;44.472;-123.352;2023-08-08T01:51:27;100467.91;;;24.79;47.28
64551;BME280;50945;44.472;-123.352;2023-08-08T01:53:53;100472.66;;;24.79;47.43
64551;BME280;50945;44.472;-123.352;2023-08-08T01:56:19;100475.16;;;24.75;47.18
64551;BME280;50945;44.472;-123.352;2023-08-08T01:58:45;100477.13;;;24.70;47.26
64551;BME280;50945;44.472;-123.352;2023-08-08T02:01:11;100481.84;;;24.64;47.00
64551;BME280;50945;44.472;-123.352;2023-08-08T02:03:37;100476.81;;;24.56;47.11
64551;BME280;50945;44.472;-123.352;2023-08-08T02:06:04;100483.16;;;24.46;46.99
64551;BME280;50945;44.472;-123.352;2023-08-08T02:08:30;100478.94;;;24.38;47.06
64551;BME280;50945;44.472;-123.352;2023-08-08T02:10:56;100477.50;;;24.25;47.21
64551;BME280;50945;44.472;-123.352;2023-08-08T02:13:22;100474.16;;;24.23;47.00
64551;BME280;50945;44.472;-123.352;2023-08-08T02:15:48;100479.16;;;24.16;46.95
64551;BME280;50945;44.472;-123.352;2023-08-08T02:18:14;100479.38;;;24.04;47.25
64551;BME280;50945;44.472;-123.352;2023-08-08T02:20:40;100473.22;;;24.02;47.13
64551;BME280;50945;44.472;-123.352;2023-08-08T02:23:06;100476.78;;;23.92;47.17
64551;BME280;50945;44.472;-123.352;2023-08-08T02:25:32;100464.78;;;23.92;46.80
64551;BME280;50945;44.472;-123.352;2023-08-08T02:27:58;100474.78;;;23.83;46.62
64551;BME280;50945;44.472;-123.352;2023-08-08T02:30:24;100477.00;;;23.81;46.76
64551;BME280;50945;44.472;-123.352;2023-08-08T02:32:49;100473.81;;;23.67;46.78
64551;BME280;50945;44.472;-123.352;2023-08-08T02:35:16;100476.84;;;23.60;46.77
64551;BME280;50945;44.472;-123.352;2023-08-08T02:37:42;100476.22;;;23.53;46.71
64551;BME280;50945;44.472;-123.352;2023-08-08T02:40:08;100474.19;;;23.43;46.81
64551;BME280;50945;44.472;-123.352;2023-08-08T02:42:35;100479.16;;;23.36;46.90
64551;BME280;50945;44.472;-123.352;2023-08-08T02:45:01;100478.25;;;23.25;47.24
64551;BME280;50945;44.472;-123.352;2023-08-08T02:47:27;100473.78;;;23.24;47.08
64551;BME280;50945;44.472;-123.352;2023-08-08T02:49:53;100484.03;;;23.13;47.57
64551;BME280;50945;44.472;-123.352;2023-08-08T02:52:19;100484.53;;;23.10;47.22
64551;BME280;50945;44.472;-123.352;2023-08-08T02:54:45;100479.97;;;22.99;48.01
64551;BME280;50945;44.472;-123.352;2023-08-08T02:57:11;100482.16;;;22.97;47.52
64551;BME280;50945;44.472;-123.352;2023-08-08T02:59:37;100485.16;;;22.90;47.49
64551;BME280;50945;44.472;-123.352;2023-08-08T03:02:04;100485.63;;;22.82;47.79
64551;BME280;50945;44.472;-123.352;2023-08-08T03:04:30;100483.59;;;22.72;47.86
64551;BME280;50945;44.472;-123.352;2023-08-08T03:06:57;100477.91;;;22.62;48.02
64551;BME280;50945;44.472;-123.352;2023-08-08T03:09:23;100491.97;;;22.50;48.30
64551;BME280;50945;44.472;-123.352;2023-08-08T03:11:48;100490.13;;;22.34;49.55
64551;BME280;50945;44.472;-123.352;2023-08-08T03:14:15;100488.59;;;22.26;48.43
64551;BME280;50945;44.472;-123.352;2023-08-08T03:16:44;100501.03;;;22.18;48.69
64551;BME280;50945;44.472;-123.352;2023-08-08T03:19:10;100499.22;;;22.07;49.09
64551;BME280;50945;44.472;-123.352;2023-08-08T03:21:36;100498.56;;;22.00;49.31
64551;BME280;50945;44.472;-123.352;2023-08-08T03:24:03;100507.34;;;21.92;49.48
64551;BME280;50945;44.472;-123.352;2023-08-08T03:26:29;100499.47;;;21.83;49.46
64551;BME280;50945;44.472;-123.352;2023-08-08T03:28:55;100511.00;;;21.75;50.03
64551;BME280;50945;44.472;-123.352;2023-08-08T03:31:22;100513.13;;;21.68;50.50
64551;BME280;50945;44.472;-123.352;2023-08-08T03:33:48;100513.28;;;21.61;50.63
64551;BME280;50945;44.472;-123.352;2023-08-08T03:36:14;100518.09;;;21.49;52.97
64551;BME280;50945;44.472;-123.352;2023-08-08T03:38:40;100525.88;;;21.47;50.72
64551;BME280;50945;44.472;-123.352;2023-08-08T03:41:10;100512.69;;;21.42;50.90
64551;BME280;50945;44.472;-123.352;2023-08-08T03:43:36;100528.44;;;21.37;51.20
64551;BME280;50945;44.472;-123.352;2023-08-08T03:46:02;100523.91;;;21.31;51.48
64551;BME280;50945;44.472;-123.352;2023-08-08T03:48:28;100526.59;;;21.25;51.95
64551;BME280;50945;44.472;-123.352;2023-08-08T03:50:54;100523.13;;;21.18;52.25
64551;BME280;50945;44.472;-123.352;2023-08-08T03:53:21;100524.13;;;21.12;52.46
64551;BME280;50945;44.472;-123.352;2023-08-08T03:55:46;100528.91;;;21.00;53.49
64551;BME280;50945;44.472;-123.352;2023-08-08T03:58:12;100531.09;;;20.98;52.75
64551;BME280;50945;44.472;-123.352;2023-08-08T04:00:39;100523.75;;;20.92;52.94
64551;BME280;50945;44.472;-123.352;2023-08-08T04:03:15;100532.25;;;20.85;53.56
64551;BME280;50945;44.472;-123.352;2023-08-08T04:05:44;100530.47;;;20.79;53.69
64551;BME280;50945;44.472;-123.352;2023-08-08T04:08:14;100543.41;;;20.73;54.03
64551;BME280;50945;44.472;-123.352;2023-08-08T04:10:41;100539.94;;;20.66;54.27
64551;BME280;50945;44.472;-123.352;2023-08-08T04:13:07;100538.75;;;20.62;54.68
64551;BME280;50945;44.472;-123.352;2023-08-08T04:15:33;100532.94;;;20.51;56.19
64551;BME280;50945;44.472;-123.352;2023-08-08T04:17:59;100528.50;;;20.50;54.56
64551;BME280;50945;44.472;-123.352;2023-08-08T04:20:25;100530.06;;;20.46;54.63
64551;BME280;50945;44.472;-123.352;2023-08-08T04:22:51;100537.56;;;20.46;55.02
64551;BME280;50945;44.472;-123.352;2023-08-08T04:25:18;100537.78;;;20.44;54.99
64551;BME280;50945;44.472;-123.352;2023-08-08T04:27:46;100540.22;;;20.41;55.31
64551;BME280;50945;44.472;-123.352;2023-08-08T04:30:12;100541.22;;;20.35;55.39
64551;BME280;50945;44.472;-123.352;2023-08-08T04:32:39;100544.13;;;20.28;55.55
64551;BME280;50945;44.472;-123.352;2023-08-08T04:35:06;100546.78;;;20.23;55.85
64551;BME280;50945;44.472;-123.352;2023-08-08T04:37:32;100542.94;;;20.12;59.13
64551;BME280;50945;44.472;-123.352;2023-08-08T04:39:58;100542.34;;;20.10;55.46
64551;BME280;50945;44.472;-123.352;2023-08-08T04:42:24;100548.38;;;20.07;55.73
64551;BME280;50945;44.472;-123.352;2023-08-08T04:44:50;100546.34;;;20.02;56.04
64551;BME280;50945;44.472;-123.352;2023-08-08T04:47:16;100553.22;;;20.00;56.03
64551;BME280;50945;44.472;-123.352;2023-08-08T04:49:43;100543.69;;;19.96;56.23
64551;BME280;50945;44.472;-123.352;2023-08-08T04:52:09;100555.03;;;19.94;56.44
64551;BME280;50945;44.472;-123.352;2023-08-08T04:54:35;100551.06;;;19.90;56.65
64551;BME280;50945;44.472;-123.352;2023-08-08T04:57:01;100557.91;;;19.87;56.58
64551;BME280;50945;44.472;-123.352;2023-08-08T04:59:27;100547.28;;;19.84;56.86
64551;BME280;50945;44.472;-123.352;2023-08-08T05:01:53;100556.59;;;19.78;56.87
64551;BME280;50945;44.472;-123.352;2023-08-08T05:04:19;100560.72;;;19.75;57.12
64551;BME280;50945;44.472;-123.352;2023-08-08T05:06:46;100561.38;;;19.71;57.16
64551;BME280;50945;44.472;-123.352;2023-08-08T05:09:12;100554.38;;;19.68;57.15
64551;BME280;50945;44.472;-123.352;2023-08-08T05:11:38;100556.53;;;19.66;57.15
64551;BME280;50945;44.472;-123.352;2023-08-08T05:14:04;100559.81;;;19.63;57.14
64551;BME280;50945;44.472;-123.352;2023-08-08T05:16:30;100561.38;;;19.59;57.32
64551;BME280;50945;44.472;-123.352;2023-08-08T05:18:56;100560.41;;;19.53;57.60
64551;BME280;50945;44.472;-123.352;2023-08-08T05:21:22;100566.91;;;19.47;57.67
64551;BME280;50945;44.472;-123.352;2023-08-08T05:23:48;100565.91;;;19.42;57.86
64551;BME280;50945;44.472;-123.352;2023-08-08T05:26:15;100573.88;;;19.38;58.12
64551;BME280;50945;44.472;-123.352;2023-08-08T05:28:41;100575.19;;;19.35;58.36
64551;BME280;50945;44.472;-123.352;2023-08-08T05:31:08;100580.59;;;19.30;58.21
64551;BME280;50945;44.472;-123.352;2023-08-08T05:33:34;100580.47;;;19.25;58.48
64551;BME280;50945;44.472;-123.352;2023-08-08T05:36:01;100570.94;;;19.21;58.73
64551;BME280;50945;44.472;-123.352;2023-08-08T05:38:27;100581.66;;;19.17;58.79
64551;BME280;50945;44.472;-123.352;2023-08-08T05:40:53;100589.38;;;19.15;58.81
64551;BME280;50945;44.472;-123.352;2023-08-08T05:43:19;100595.38;;;19.12;58.96
64551;BME280;50945;44.472;-123.352;2023-08-08T05:45:47;100585.63;;;19.10;58.83
64551;BME280;50945;44.472;-123.352;2023-08-08T05:48:13;100585.09;;;19.01;63.53
64551;BME280;50945;44.472;-123.352;2023-08-08T05:50:40;100587.88;;;19.01;59.02
64551;BME280;50945;44.472;-123.352;2023-08-08T05:53:06;100587.25;;;18.99;59.05
64551;BME280;50945;44.472;-123.352;2023-08-08T05:55:32;100590.13;;;18.92;62.11
64551;BME280;50945;44.472;-123.352;2023-08-08T05:57:59;100595.66;;;18.92;58.94
64551;BME280;50945;44.472;-123.352;2023-08-08T06:00:25;100586.38;;;18.87;61.93
64551;BME280;50945;44.472;-123.352;2023-08-08T06:02:51;100604.06;;;18.86;59.09
64551;BME280;50945;44.472;-123.352;2023-08-08T06:05:17;100601.75;;;18.83;59.23
64551;BME280;50945;44.472;-123.352;2023-08-08T06:07:44;100597.97;;;18.77;59.62
64551;BME280;50945;44.472;-123.352;2023-08-08T06:10:10;100598.66;;;18.72;59.71
64551;BME280;50945;44.472;-123.352;2023-08-08T06:12:36;100601.03;;;18.69;59.78
64551;BME280;50945;44.472;-123.352;2023-08-08T06:15:03;100597.66;;;18.67;59.94
64551;BME280;50945;44.472;-123.352;2023-08-08T06:17:30;100596.22;;;18.64;59.81
64551;BME280;50945;44.472;-123.352;2023-08-08T06:19:56;100598.97;;;18.64;60.02
64551;BME280;50945;44.472;-123.352;2023-08-08T06:22:23;100590.91;;;18.62;60.08
64551;BME280;50945;44.472;-123.352;2023-08-08T06:24:49;100594.59;;;18.56;60.02
64551;BME280;50945;44.472;-123.352;2023-08-08T06:27:15;100595.53;;;18.50;60.70
64551;BME280;50945;44.472;-123.352;2023-08-08T06:29:41;100592.59;;;18.45;60.50
64551;BME280;50945;44.472;-123.352;2023-08-08T06:32:08;100583.09;;;18.41;60.75
64551;BME280;50945;44.472;-123.352;2023-08-08T06:34:34;100583.75;;;18.36;60.87
64551;BME280;50945;44.472;-123.352;2023-08-08T06:37:00;100580.84;;;18.31;60.88
64551;BME280;50945;44.472;-123.352;2023-08-08T06:39:26;100573.69;;;18.23;61.27
64551;BME280;50945;44.472;-123.352;2023-08-08T06:41:52;100585.22;;;18.20;61.43
64551;BME280;50945;44.472;-123.352;2023-08-08T06:44:19;100574.88;;;18.16;61.62
64551;BME280;50945;44.472;-123.352;2023-08-08T06:46:45;100575.09;;;18.14;61.86
64551;BME280;50945;44.472;-123.352;2023-08-08T06:49:11;100580.00;;;18.12;61.97
64551;BME280;50945;44.472;-123.352;2023-08-08T06:51:37;100577.47;;;18.11;62.21
64551;BME280;50945;44.472;-123.352;2023-08-08T06:54:03;100587.06;;;18.08;62.12
64551;BME280;50945;44.472;-123.352;2023-08-08T06:56:29;100577.31;;;18.05;62.39
64551;BME280;50945;44.472;-123.352;2023-08-08T06:58:55;100576.69;;;18.03;62.50
64551;BME280;50945;44.472;-123.352;2023-08-08T07:01:22;100579.06;;;18.00;62.49
64551;BME280;50945;44.472;-123.352;2023-08-08T07:03:48;100582.28;;;17.97;62.63
64551;BME280;50945;44.472;-123.352;2023-08-08T07:06:17;100581.28;;;17.91;62.67
64551;BME280;50945;44.472;-123.352;2023-08-08T07:08:43;100585.56;;;17.87;62.82
64551;BME280;50945;44.472;-123.352;2023-08-08T07:11:10;100581.75;;;17.81;62.83
64551;BME280;50945;44.472;-123.352;2023-08-08T07:13:36;100586.06;;;17.77;62.84
64551;BME280;50945;44.472;-123.352;2023-08-08T07:16:02;100583.97;;;17.73;63.21
64551;BME280;50945;44.472;-123.352;2023-08-08T07:18:28;100578.91;;;17.70;63.30
64551;BME280;50945;44.472;-123.352;2023-08-08T07:20:54;100575.75;;;17.66;63.13
64551;BME280;50945;44.472;-123.352;2023-08-08T07:23:23;100571.50;;;17.63;63.61
64551;BME280;50945;44.472;-123.352;2023-08-08T07:25:49;100570.88;;;17.61;63.64
64551;BME280;50945;44.472;-123.352;2023-08-08T07:28:15;100576.03;;;17.58;63.62
64551;BME280;50945;44.472;-123.352;2023-08-08T07:30:41;100574.78;;;17.54;63.81
64551;BME280;50945;44.472;-123.352;2023-08-08T07:33:07;100575.44;;;17.49;66.84
64551;BME280;50945;44.472;-123.352;2023-08-08T07:35:36;100579.28;;;17.48;63.80
64551;BME280;50945;44.472;-123.352;2023-08-08T07:38:03;100576.75;;;17.46;64.08
64551;BME280;50945;44.472;-123.352;2023-08-08T07:40:29;100576.13;;;17.44;63.97
64551;BME280;50945;44.472;-123.352;2023-08-08T07:42:55;100579.13;;;17.43;63.98
64551;BME280;50945;44.472;-123.352;2023-08-08T07:45:21;100568.91;;;17.43;63.72
64551;BME280;50945;44.472;-123.352;2023-08-08T07:47:47;100580.81;;;17.44;64.23
64551;BME280;50945;44.472;-123.352;2023-08-08T07:50:13;100578.66;;;17.46;64.53
64551;BME280;50945;44.472;-123.352;2023-08-08T07:52:40;100567.00;;;17.44;67.67
64551;BME280;50945;44.472;-123.352;2023-08-08T07:55:06;100579.53;;;17.46;64.08
64551;BME280;50945;44.472;-123.352;2023-08-08T07:57:32;100577.22;;;17.43;68.07
64551;BME280;50945;44.472;-123.352;2023-08-08T08:00:02;100577.81;;;17.45;64.53
64551;BME280;50945;44.472;-123.352;2023-08-08T08:02:37;100575.91;;;17.46;64.42
64551;BME280;50945;44.472;-123.352;2023-08-08T08:05:03;100586.94;;;17.46;64.22
64551;BME280;50945;44.472;-123.352;2023-08-08T08:07:34;100588.03;;;17.45;64.16
64551;BME280;50945;44.472;-123.352;2023-08-08T08:10:02;100584.19;;;17.46;64.38
64551;BME280;50945;44.472;-123.352;2023-08-08T08:12:29;100590.59;;;17.46;64.45
64551;BME280;50945;44.472;-123.352;2023-08-08T08:14:55;100583.34;;;17.45;64.34
64551;BME280;50945;44.472;-123.352;2023-08-08T08:17:22;100584.41;;;17.44;64.45
64551;BME280;50945;44.472;-123.352;2023-08-08T08:19:48;100583.78;;;17.42;64.59
64551;BME280;50945;44.472;-123.352;2023-08-08T08:22:14;100588.69;;;17.40;64.59
64551;BME280;50945;44.472;-123.352;2023-08-08T08:24:40;100591.91;;;17.37;64.64
64551;BME280;50945;44.472;-123.352;2023-08-08T08:27:06;100586.63;;;17.36;64.68
64551;BME280;50945;44.472;-123.352;2023-08-08T08:29:32;100584.09;;;17.34;65.01
64551;BME280;50945;44.472;-123.352;2023-08-08T08:31:58;100589.84;;;17.33;64.74
64551;BME280;50945;44.472;-123.352;2023-08-08T08:34:25;100588.13;;;17.32;64.96
64551;BME280;50945;44.472;-123.352;2023-08-08T08:36:51;100589.22;;;17.31;65.13
64551;BME280;50945;44.472;-123.352;2023-08-08T08:39:17;100588.56;;;17.28;64.81
64551;BME280;50945;44.472;-123.352;2023-08-08T08:41:48;100585.19;;;17.26;65.13
64551;BME280;50945;44.472;-123.352;2023-08-08T08:44:16;100577.38;;;17.23;64.67
64551;BME280;50945;44.472;-123.352;2023-08-08T08:46:42;100575.47;;;17.17;65.14
64551;BME280;50945;44.472;-123.352;2023-08-08T08:49:10;100581.44;;;17.14;65.19
64551;BME280;50945;44.472;-123.352;2023-08-08T08:51:37;100585.72;;;17.10;65.82
64551;BME280;50945;44.472;-123.352;2023-08-08T08:54:05;100582.56;;;17.06;65.89
64551;BME280;50945;44.472;-123.352;2023-08-08T08:56:32;100589.13;;;17.05;65.70
64551;BME280;50945;44.472;-123.352;2023-08-08T08:58:59;100586.63;;;17.04;65.77
64551;BME280;50945;44.472;-123.352;2023-08-08T09:01:26;100586.84;;;17.02;65.86
64551;BME280;50945;44.472;-123.352;2023-08-08T09:03:53;100591.75;;;17.00;66.19
64551;BME280;50945;44.472;-123.352;2023-08-08T09:06:22;100587.50;;;16.98;66.16
64551;BME280;50945;44.472;-123.352;2023-08-08T09:08:49;100588.19;;;16.93;66.33
64551;BME280;50945;44.472;-123.352;2023-08-08T09:11:15;100587.78;;;16.89;66.03
64551;BME280;50945;44.472;-123.352;2023-08-08T09:13:41;100592.25;;;16.84;66.41
64551;BME280;50945;44.472;-123.352;2023-08-08T09:16:08;100586.28;;;16.80;66.57
64551;BME280;50945;44.472;-123.352;2023-08-08T09:18:35;100588.63;;;16.77;66.84
64551;BME280;50945;44.472;-123.352;2023-08-08T09:21:05;100591.88;;;16.73;67.06
64551;BME280;50945;44.472;-123.352;2023-08-08T09:23:31;100597.81;;;16.70;66.58
64551;BME280;50945;44.472;-123.352;2023-08-08T09:25:57;100588.03;;;16.68;71.17
64551;BME280;50945;44.472;-123.352;2023-08-08T09:28:24;100591.88;;;16.67;66.87
64551;BME280;50945;44.472;-123.352;2023-08-08T09:30:51;100582.75;;;16.66;66.83
64551;BME280;50945;44.472;-123.352;2023-08-08T09:33:19;100591.25;;;16.65;66.65
64551;BME280;50945;44.472;-123.352;2023-08-08T09:35:45;100590.59;;;16.63;67.14
64551;BME280;50945;44.472;-123.352;2023-08-08T09:38:11;100587.00;;;16.62;66.91
64551;BME280;50945;44.472;-123.352;2023-08-08T09:40:37;100578.94;;;16.61;67.11
64551;BME280;50945;44.472;-123.352;2023-08-08T09:43:04;100586.59;;;16.59;67.58
64551;BME280;50945;44.472;-123.352;2023-08-08T09:45:39;100588.75;;;16.57;67.72
64551;BME280;50945;44.472;-123.352;2023-08-08T09:48:10;100584.72;;;16.52;67.78
64551;BME280;50945;44.472;-123.352;2023-08-08T09:50:36;100578.59;;;16.50;67.66
64551;BME280;50945;44.472;-123.352;2023-08-08T09:53:04;100583.44;;;16.48;67.68
64551;BME280;50945;44.472;-123.352;2023-08-08T09:55:30;100581.16;;;16.45;67.81
64551;BME280;50945;44.472;-123.352;2023-08-08T09:57:57;100579.44;;;16.44;67.83
64551;BME280;50945;44.472;-123.352;2023-08-08T10:00:27;100586.06;;;16.43;67.61
64551;BME280;50945;44.472;-123.352;2023-08-08T10:02:54;100584.34;;;16.42;68.00
64551;BME280;50945;44.472;-123.352;2023-08-08T10:05:20;100583.72;;;16.40;72.40
64551;BME280;50945;44.472;-123.352;2023-08-08T10:07:47;100579.25;;;16.39;67.90
64551;BME280;50945;44.472;-123.352;2023-08-08T10:10:13;100585.84;;;16.38;68.02
64551;BME280;50945;44.472;-123.352;2023-08-08T10:12:40;100589.88;;;16.35;67.96
64551;BME280;50945;44.472;-123.352;2023-08-08T10:15:08;100585.44;;;16.34;68.17
64551;BME280;50945;44.472;-123.352;2023-08-08T10:17:37;100582.88;;;16.33;68.41
64551;BME280;50945;44.472;-123.352;2023-08-08T10:20:05;100584.16;;;16.30;68.47
64551;BME280;50945;44.472;-123.352;2023-08-08T10:22:45;100573.59;;;16.27;68.30
64551;BME280;50945;44.472;-123.352;2023-08-08T10:25:43;100584.41;;;16.22;71.16
64551;BME280;50945;44.472;-123.352;2023-08-08T10:28:11;100582.50;;;16.16;68.79
64551;BME280;50945;44.472;-123.352;2023-08-08T10:30:55;100576.16;;;16.09;69.17
64551;BME280;50945;44.472;-123.352;2023-08-08T10:33:24;100574.28;;;16.03;68.85
64551;BME280;50945;44.472;-123.352;2023-08-08T10:36:04;100581.25;;;15.99;69.42
64551;BME280;50945;44.472;-123.352;2023-08-08T10:38:49;100581.72;;;15.95;70.50
64551;BME280;50945;44.472;-123.352;2023-08-08T10:41:19;100580.22;;;15.93;69.12
64551;BME280;50945;44.472;-123.352;2023-08-08T10:43:53;100580.88;;;15.88;69.36
64551;BME280;50945;44.472;-123.352;2023-08-08T10:46:29;100578.75;;;15.84;69.94
64551;BME280;50945;44.472;-123.352;2023-08-08T10:48:59;100580.03;;;15.81;69.95
64551;BME280;50945;44.472;-123.352;2023-08-08T10:51:41;100574.13;;;15.77;70.70
64551;BME280;50945;44.472;-123.352;2023-08-08T10:54:14;100573.63;;;15.74;69.95
64551;BME280;50945;44.472;-123.352;2023-08-08T10:56:41;100573.00;;;15.72;70.26
64551;BME280;50945;44.472;-123.352;2023-08-08T10:59:24;100570.69;;;15.69;70.95
64551;BME280;50945;44.472;-123.352;2023-08-08T11:01:52;100578.72;;;15.70;70.24
64551;BME280;50945;44.472;-123.352;2023-08-08T11:04:21;100570.44;;;15.70;70.03
64551;BME280;50945;44.472;-123.352;2023-08-08T11:06:47;100576.84;;;15.71;70.46
64551;BME280;50945;44.472;-123.352;2023-08-08T11:09:16;100575.97;;;15.70;70.26
64551;BME280;50945;44.472;-123.352;2023-08-08T11:11:44;100577.69;;;15.71;70.42
64551;BME280;50945;44.472;-123.352;2023-08-08T11:14:11;100577.88;;;15.70;69.80
64551;BME280;50945;44.472;-123.352;2023-08-08T11:16:37;100565.81;;;15.64;70.14
64551;BME280;50945;44.472;-123.352;2023-08-08T11:19:04;100570.91;;;15.61;69.83
64551;BME280;50945;44.472;-123.352;2023-08-08T11:21:34;100567.31;;;15.53;70.15
64551;BME280;50945;44.472;-123.352;2023-08-08T11:24:02;100564.13;;;15.50;70.50
64551;BME280;50945;44.472;-123.352;2023-08-08T11:26:28;100567.28;;;15.47;70.77
64551;BME280;50945;44.472;-123.352;2023-08-08T11:28:59;100565.19;;;15.42;70.63
64551;BME280;50945;44.472;-123.352;2023-08-08T11:31:26;100558.38;;;15.38;70.95
64551;BME280;50945;44.472;-123.352;2023-08-08T11:33:53;100559.88;;;15.34;70.88
64551;BME280;50945;44.472;-123.352;2023-08-08T11:36:20;100556.06;;;15.28;71.04
64551;BME280;50945;44.472;-123.352;2023-08-08T11:38:49;100553.94;;;15.24;71.17
64551;BME280;50945;44.472;-123.352;2023-08-08T11:41:17;100548.84;;;15.20;71.05
64551;BME280;50945;44.472;-123.352;2023-08-08T11:43:44;100551.16;;;15.17;71.17
64551;BME280;50945;44.472;-123.352;2023-08-08T11:46:14;100557.31;;;15.12;71.52
64551;BME280;50945;44.472;-123.352;2023-08-08T11:48:41;100557.53;;;15.11;71.68
64551;BME280;50945;44.472;-123.352;2023-08-08T11:51:08;100558.56;;;15.10;71.65
64551;BME280;50945;44.472;-123.352;2023-08-08T11:53:35;100554.78;;;15.11;71.43
64551;BME280;50945;44.472;-123.352;2023-08-08T11:56:03;100559.25;;;15.12;71.24
64551;BME280;50945;44.472;-123.352;2023-08-08T11:58:30;100551.41;;;15.09;70.73
64551;BME280;50945;44.472;-123.352;2023-08-08T12:00:57;100552.00;;;15.04;71.43
64551;BME280;50945;44.472;-123.352;2023-08-08T12:03:25;100559.22;;;14.98;71.41
64551;BME280;50945;44.472;-123.352;2023-08-08T12:05:52;100565.13;;;14.95;71.66
64551;BME280;50945;44.472;-123.352;2023-08-08T12:08:18;100559.19;;;14.92;71.93
64551;BME280;50945;44.472;-123.352;2023-08-08T12:10:52;100557.91;;;14.88;72.07
64551;BME280;50945;44.472;-123.352;2023-08-08T12:13:23;100564.03;;;14.83;72.19
64551;BME280;50945;44.472;-123.352;2023-08-08T12:15:53;100564.66;;;14.78;72.31
64551;BME280;50945;44.472;-123.352;2023-08-08T12:18:19;100562.31;;;14.75;72.80
64551;BME280;50945;44.472;-123.352;2023-08-08T12:20:46;100561.91;;;14.72;72.68